Terminal Aerodrome Forecast
Issued by NWS Greer, SC

Home | Current Version | Previous Version | Text Only | Print | Product List | Glossary On
Versions: 1 2 3 4 5 6 7 8 9 10 11 12 13 14 15 16 17 18 19 20 21 22 23 24 25 26 27 28 29 30 31 32 33 34 35 36 37 38
000
FTUS42 KGSP 220521
TAFAVL
TAF
KAVL 220521Z 2206/2306 00000KT P6SM FEW250
     FM220900 VRB02KT 1 1/2SM BR SCT040
     FM221300 36003KT P6SM SCT070
     FM221700 06004KT P6SM SCT045 PROB30 2219/2222 4SM -SHRA BKN045=

USA.gov is the U.S. government's official web portal to all federal, state and local government web resources and services.